sensor_id;sensor_type;location;lat;lon;timestamp;P1;durP1;ratioP1;P2;durP2;ratioP2
4226;SDS011;2127;51.046;7.080;2023-08-21T00:00:40;9.83;;;1.37;;
4226;SDS011;2127;51.046;7.080;2023-08-21T00:03:06;5.10;;;1.57;;
4226;SDS011;2127;51.046;7.080;2023-08-21T00:05:32;4.20;;;1.33;;
4226;SDS011;2127;51.046;7.080;2023-08-21T00:07:59;2.17;;;1.20;;
4226;SDS011;2127;51.046;7.080;2023-08-21T00:10:25;7.93;;;1.33;;
4226;SDS011;2127;51.046;7.080;2023-08-21T00:12:51;1.80;;;1.70;;
4226;SDS011;2127;51.046;7.080;2023-08-21T00:15:18;1.80;;;1.70;;
4226;SDS011;2127;51.046;7.080;2023-08-21T00:17:45;2.47;;;2.37;;
4226;SDS011;2127;51.046;7.080;2023-08-21T00:20:12;3.60;;;1.93;;
4226;SDS011;2127;51.046;7.080;2023-08-21T00:22:38;2.60;;;1.53;;
4226;SDS011;2127;51.046;7.080;2023-08-21T00:25:04;1.17;;;1.17;;
4226;SDS011;2127;51.046;7.080;2023-08-21T00:27:31;1.73;;;1.63;;
4226;SDS011;2127;51.046;7.080;2023-08-21T00:29:57;1.57;;;1.47;;
4226;SDS011;2127;51.046;7.080;2023-08-21T00:32:23;1.57;;;1.47;;
4226;SDS011;2127;51.046;7.080;2023-08-21T00:34:51;4.23;;;1.87;;
4226;SDS011;2127;51.046;7.080;2023-08-21T00:37:17;2.20;;;1.33;;
4226;SDS011;2127;51.046;7.080;2023-08-21T00:39:45;1.70;;;1.60;;
4226;SDS011;2127;51.046;7.080;2023-08-21T00:42:12;4.07;;;2.17;;
4226;SDS011;2127;51.046;7.080;2023-08-21T00:44:38;2.53;;;1.60;;
4226;SDS011;2127;51.046;7.080;2023-08-21T00:47:04;7.90;;;2.00;;
4226;SDS011;2127;51.046;7.080;2023-08-21T00:49:31;1.20;;;1.20;;
4226;SDS011;2127;51.046;7.080;2023-08-21T00:51:59;4.03;;;2.10;;
4226;SDS011;2127;51.046;7.080;2023-08-21T00:54:25;2.40;;;1.80;;
4226;SDS011;2127;51.046;7.080;2023-08-21T00:56:52;1.23;;;1.23;;
4226;SDS011;2127;51.046;7.080;2023-08-21T00:59:18;2.23;;;2.03;;
4226;SDS011;2127;51.046;7.080;2023-08-21T01:01:45;3.40;;;1.87;;
4226;SDS011;2127;51.046;7.080;2023-08-21T01:04:11;1.37;;;1.37;;
4226;SDS011;2127;51.046;7.080;2023-08-21T01:06:37;1.80;;;1.80;;
4226;SDS011;2127;51.046;7.080;2023-08-21T01:09:07;1.47;;;1.37;;
4226;SDS011;2127;51.046;7.080;2023-08-21T01:11:35;5.53;;;1.60;;
4226;SDS011;2127;51.046;7.080;2023-08-21T01:14:06;3.63;;;2.27;;
4226;SDS011;2127;51.046;7.080;2023-08-21T01:16:34;1.70;;;1.60;;
4226;SDS011;2127;51.046;7.080;2023-08-21T01:19:02;4.17;;;2.00;;
4226;SDS011;2127;51.046;7.080;2023-08-21T01:21:29;3.60;;;2.47;;
4226;SDS011;2127;51.046;7.080;2023-08-21T01:23:57;2.60;;;1.60;;
4226;SDS011;2127;51.046;7.080;2023-08-21T01:26:23;2.47;;;2.13;;
4226;SDS011;2127;51.046;7.080;2023-08-21T01:28:50;1.93;;;1.87;;
4226;SDS011;2127;51.046;7.080;2023-08-21T01:31:19;3.50;;;2.20;;
4226;SDS011;2127;51.046;7.080;2023-08-21T01:33:47;2.00;;;1.80;;
4226;SDS011;2127;51.046;7.080;2023-08-21T01:36:14;3.17;;;1.73;;
4226;SDS011;2127;51.046;7.080;2023-08-21T01:38:41;6.30;;;1.47;;
4226;SDS011;2127;51.046;7.080;2023-08-21T01:41:08;2.07;;;1.97;;
4226;SDS011;2127;51.046;7.080;2023-08-21T01:43:35;2.27;;;1.93;;
4226;SDS011;2127;51.046;7.080;2023-08-21T01:46:01;2.00;;;1.90;;
4226;SDS011;2127;51.046;7.080;2023-08-21T01:48:28;3.50;;;1.77;;
4226;SDS011;2127;51.046;7.080;2023-08-21T01:50:54;1.80;;;1.57;;
4226;SDS011;2127;51.046;7.080;2023-08-21T01:53:20;2.60;;;1.97;;
4226;SDS011;2127;51.046;7.080;2023-08-21T01:55:47;2.33;;;1.63;;
4226;SDS011;2127;51.046;7.080;2023-08-21T01:58:14;3.30;;;1.30;;
4226;SDS011;2127;51.046;7.080;2023-08-21T02:00:41;3.00;;;2.20;;
4226;SDS011;2127;51.046;7.080;2023-08-21T02:03:07;3.57;;;2.20;;
4226;SDS011;2127;51.046;7.080;2023-08-21T02:05:37;1.90;;;1.80;;
4226;SDS011;2127;51.046;7.080;2023-08-21T02:08:03;5.53;;;1.93;;
4226;SDS011;2127;51.046;7.080;2023-08-21T02:10:30;2.07;;;1.97;;
4226;SDS011;2127;51.046;7.080;2023-08-21T02:12:56;1.57;;;1.47;;
4226;SDS011;2127;51.046;7.080;2023-08-21T02:15:24;2.20;;;1.40;;
4226;SDS011;2127;51.046;7.080;2023-08-21T02:17:50;1.53;;;1.43;;
4226;SDS011;2127;51.046;7.080;2023-08-21T02:20:16;3.13;;;1.77;;
4226;SDS011;2127;51.046;7.080;2023-08-21T02:22:42;9.30;;;2.27;;
4226;SDS011;2127;51.046;7.080;2023-08-21T02:25:09;1.30;;;1.30;;
4226;SDS011;2127;51.046;7.080;2023-08-21T02:27:35;1.67;;;1.57;;
4226;SDS011;2127;51.046;7.080;2023-08-21T02:30:01;2.00;;;1.90;;
4226;SDS011;2127;51.046;7.080;2023-08-21T02:32:30;3.33;;;3.03;;
4226;SDS011;2127;51.046;7.080;2023-08-21T02:34:56;4.40;;;1.90;;
4226;SDS011;2127;51.046;7.080;2023-08-21T02:37:22;4.17;;;1.60;;
4226;SDS011;2127;51.046;7.080;2023-08-21T02:39:49;2.30;;;1.47;;
4226;SDS011;2127;51.046;7.080;2023-08-21T02:42:15;2.03;;;1.80;;
4226;SDS011;2127;51.046;7.080;2023-08-21T02:44:41;1.83;;;1.73;;
4226;SDS011;2127;51.046;7.080;2023-08-21T02:47:07;1.37;;;1.30;;
4226;SDS011;2127;51.046;7.080;2023-08-21T02:49:35;1.53;;;1.43;;
4226;SDS011;2127;51.046;7.080;2023-08-21T02:52:01;2.17;;;2.07;;
4226;SDS011;2127;51.046;7.080;2023-08-21T02:54:28;2.03;;;1.93;;
4226;SDS011;2127;51.046;7.080;2023-08-21T02:56:54;1.20;;;1.20;;
4226;SDS011;2127;51.046;7.080;2023-08-21T02:59:20;1.27;;;1.23;;
4226;SDS011;2127;51.046;7.080;2023-08-21T03:01:46;2.50;;;1.60;;
4226;SDS011;2127;51.046;7.080;2023-08-21T03:04:13;7.80;;;1.60;;
4226;SDS011;2127;51.046;7.080;2023-08-21T03:06:40;3.10;;;2.27;;
4226;SDS011;2127;51.046;7.080;2023-08-21T03:09:07;1.90;;;1.80;;
4226;SDS011;2127;51.046;7.080;2023-08-21T03:11:33;1.80;;;1.70;;
4226;SDS011;2127;51.046;7.080;2023-08-21T03:13:59;2.30;;;1.83;;
4226;SDS011;2127;51.046;7.080;2023-08-21T03:16:26;1.80;;;1.70;;
4226;SDS011;2127;51.046;7.080;2023-08-21T03:18:55;1.33;;;1.33;;
4226;SDS011;2127;51.046;7.080;2023-08-21T03:21:22;1.53;;;1.43;;
4226;SDS011;2127;51.046;7.080;2023-08-21T03:23:51;1.17;;;1.07;;
4226;SDS011;2127;51.046;7.080;2023-08-21T03:26:17;6.00;;;2.50;;
4226;SDS011;2127;51.046;7.080;2023-08-21T03:28:43;1.47;;;1.33;;
4226;SDS011;2127;51.046;7.080;2023-08-21T03:31:10;1.40;;;1.30;;
4226;SDS011;2127;51.046;7.080;2023-08-21T03:33:36;1.07;;;1.07;;
4226;SDS011;2127;51.046;7.080;2023-08-21T03:36:02;1.67;;;1.57;;
4226;SDS011;2127;51.046;7.080;2023-08-21T03:38:29;1.17;;;1.17;;
4226;SDS011;2127;51.046;7.080;2023-08-21T03:40:56;6.23;;;1.40;;
4226;SDS011;2127;51.046;7.080;2023-08-21T03:43:23;2.70;;;2.13;;
4226;SDS011;2127;51.046;7.080;2023-08-21T03:45:49;4.03;;;2.10;;
4226;SDS011;2127;51.046;7.080;2023-08-21T03:48:15;2.10;;;1.80;;
4226;SDS011;2127;51.046;7.080;2023-08-21T03:50:41;2.20;;;1.53;;
4226;SDS011;2127;51.046;7.080;2023-08-21T03:53:08;1.60;;;1.60;;
4226;SDS011;2127;51.046;7.080;2023-08-21T03:55:34;1.80;;;1.70;;
4226;SDS011;2127;51.046;7.080;2023-08-21T03:58:02;1.87;;;1.77;;
4226;SDS011;2127;51.046;7.080;2023-08-21T04:00:28;3.27;;;1.97;;
4226;SDS011;2127;51.046;7.080;2023-08-21T04:02:55;1.90;;;1.80;;
4226;SDS011;2127;51.046;7.080;2023-08-21T04:05:22;4.10;;;1.80;;
4226;SDS011;2127;51.046;7.080;2023-08-21T04:07:48;1.37;;;1.27;;
4226;SDS011;2127;51.046;7.080;2023-08-21T04:10:14;7.00;;;1.53;;
4226;SDS011;2127;51.046;7.080;2023-08-21T04:12:41;1.50;;;1.40;;
4226;SDS011;2127;51.046;7.080;2023-08-21T04:15:10;2.20;;;2.00;;
4226;SDS011;2127;51.046;7.080;2023-08-21T04:17:36;1.70;;;1.70;;
4226;SDS011;2127;51.046;7.080;2023-08-21T04:20:03;3.43;;;1.23;;
4226;SDS011;2127;51.046;7.080;2023-08-21T04:22:29;2.23;;;2.10;;
4226;SDS011;2127;51.046;7.080;2023-08-21T04:24:55;1.90;;;1.80;;
4226;SDS011;2127;51.046;7.080;2023-08-21T04:27:21;12.90;;;3.70;;
4226;SDS011;2127;51.046;7.080;2023-08-21T04:29:48;1.93;;;1.80;;
4226;SDS011;2127;51.046;7.080;2023-08-21T04:32:15;2.37;;;2.10;;
4226;SDS011;2127;51.046;7.080;2023-08-21T04:34:42;2.40;;;1.53;;
4226;SDS011;2127;51.046;7.080;2023-08-21T04:37:08;2.70;;;1.90;;
4226;SDS011;2127;51.046;7.080;2023-08-21T04:39:35;2.77;;;1.67;;
4226;SDS011;2127;51.046;7.080;2023-08-21T04:42:01;3.60;;;2.83;;
4226;SDS011;2127;51.046;7.080;2023-08-21T04:44:27;4.70;;;2.13;;
4226;SDS011;2127;51.046;7.080;2023-08-21T04:46:56;1.83;;;1.73;;
4226;SDS011;2127;51.046;7.080;2023-08-21T04:49:23;3.30;;;2.47;;
4226;SDS011;2127;51.046;7.080;2023-08-21T04:51:50;6.00;;;1.90;;
4226;SDS011;2127;51.046;7.080;2023-08-21T04:54:16;2.20;;;1.80;;
4226;SDS011;2127;51.046;7.080;2023-08-21T04:56:42;6.20;;;2.30;;
4226;SDS011;2127;51.046;7.080;2023-08-21T04:59:08;1.67;;;1.57;;
4226;SDS011;2127;51.046;7.080;2023-08-21T05:01:35;3.13;;;2.83;;
4226;SDS011;2127;51.046;7.080;2023-08-21T05:04:01;1.83;;;1.73;;
4226;SDS011;2127;51.046;7.080;2023-08-21T05:06:29;4.07;;;1.73;;
4226;SDS011;2127;51.046;7.080;2023-08-21T05:08:55;1.30;;;1.30;;
4226;SDS011;2127;51.046;7.080;2023-08-21T05:11:21;2.40;;;2.20;;
4226;SDS011;2127;51.046;7.080;2023-08-21T05:13:48;1.80;;;1.67;;
4226;SDS011;2127;51.046;7.080;2023-08-21T05:16:14;2.80;;;2.60;;
4226;SDS011;2127;51.046;7.080;2023-08-21T05:18:40;3.80;;;2.10;;
4226;SDS011;2127;51.046;7.080;2023-08-21T05:21:07;2.37;;;2.27;;
4226;SDS011;2127;51.046;7.080;2023-08-21T05:23:34;3.80;;;2.13;;
4226;SDS011;2127;51.046;7.080;2023-08-21T05:26:01;2.57;;;2.47;;
4226;SDS011;2127;51.046;7.080;2023-08-21T05:28:27;7.43;;;2.10;;
4226;SDS011;2127;51.046;7.080;2023-08-21T05:30:53;3.40;;;2.43;;
4226;SDS011;2127;51.046;7.080;2023-08-21T05:33:20;3.70;;;2.63;;
4226;SDS011;2127;51.046;7.080;2023-08-21T05:35:46;3.23;;;2.60;;
4226;SDS011;2127;51.046;7.080;2023-08-21T05:38:12;2.77;;;2.67;;
4226;SDS011;2127;51.046;7.080;2023-08-21T05:40:41;3.07;;;2.77;;
4226;SDS011;2127;51.046;7.080;2023-08-21T05:43:07;4.03;;;2.90;;
4226;SDS011;2127;51.046;7.080;2023-08-21T05:45:34;7.20;;;2.57;;
4226;SDS011;2127;51.046;7.080;2023-08-21T05:48:00;2.97;;;2.77;;
4226;SDS011;2127;51.046;7.080;2023-08-21T05:50:26;6.00;;;2.43;;
4226;SDS011;2127;51.046;7.080;2023-08-21T05:52:53;2.90;;;2.80;;
4226;SDS011;2127;51.046;7.080;2023-08-21T05:55:19;3.20;;;3.10;;
4226;SDS011;2127;51.046;7.080;2023-08-21T05:57:47;4.20;;;3.70;;
4226;SDS011;2127;51.046;7.080;2023-08-21T06:00:13;2.17;;;2.07;;
4226;SDS011;2127;51.046;7.080;2023-08-21T06:02:40;2.47;;;2.33;;
4226;SDS011;2127;51.046;7.080;2023-08-21T06:05:08;5.70;;;2.80;;
4226;SDS011;2127;51.046;7.080;2023-08-21T06:07:34;2.30;;;2.20;;
4226;SDS011;2127;51.046;7.080;2023-08-21T06:10:00;4.10;;;2.63;;
4226;SDS011;2127;51.046;7.080;2023-08-21T06:12:27;2.77;;;2.57;;
4226;SDS011;2127;51.046;7.080;2023-08-21T06:14:54;8.60;;;3.40;;
4226;SDS011;2127;51.046;7.080;2023-08-21T06:17:21;2.80;;;2.70;;
4226;SDS011;2127;51.046;7.080;2023-08-21T06:19:47;24.90;;;3.30;;
4226;SDS011;2127;51.046;7.080;2023-08-21T06:22:13;2.53;;;2.43;;
4226;SDS011;2127;51.046;7.080;2023-08-21T06:24:40;3.40;;;2.40;;
4226;SDS011;2127;51.046;7.080;2023-08-21T06:27:06;3.40;;;3.10;;
4226;SDS011;2127;51.046;7.080;2023-08-21T06:29:33;2.07;;;1.97;;
4226;SDS011;2127;51.046;7.080;2023-08-21T06:32:01;2.60;;;2.40;;
4226;SDS011;2127;51.046;7.080;2023-08-21T06:34:27;3.77;;;2.80;;
4226;SDS011;2127;51.046;7.080;2023-08-21T06:36:54;3.20;;;2.90;;
4226;SDS011;2127;51.046;7.080;2023-08-21T06:39:20;5.30;;;3.47;;
4226;SDS011;2127;51.046;7.080;2023-08-21T06:41:46;5.23;;;3.73;;
4226;SDS011;2127;51.046;7.080;2023-08-21T06:44:13;5.77;;;3.80;;
4226;SDS011;2127;51.046;7.080;2023-08-21T06:46:39;2.90;;;2.70;;
4226;SDS011;2127;51.046;7.080;2023-08-21T06:49:07;3.97;;;3.23;;
4226;SDS011;2127;51.046;7.080;2023-08-21T06:51:33;2.80;;;2.57;;
4226;SDS011;2127;51.046;7.080;2023-08-21T06:53:59;3.00;;;2.90;;
4226;SDS011;2127;51.046;7.080;2023-08-21T06:56:25;5.43;;;3.33;;
4226;SDS011;2127;51.046;7.080;2023-08-21T06:58:52;3.73;;;3.50;;
4226;SDS011;2127;51.046;7.080;2023-08-21T07:01:20;16.77;;;4.23;;
4226;SDS011;2127;51.046;7.080;2023-08-21T07:03:46;5.43;;;4.93;;
4226;SDS011;2127;51.046;7.080;2023-08-21T07:06:14;3.40;;;3.20;;
4226;SDS011;2127;51.046;7.080;2023-08-21T07:08:40;3.83;;;3.37;;
4226;SDS011;2127;51.046;7.080;2023-08-21T07:11:07;3.90;;;3.60;;
4226;SDS011;2127;51.046;7.080;2023-08-21T07:13:35;4.50;;;3.97;;
4226;SDS011;2127;51.046;7.080;2023-08-21T07:16:01;5.37;;;3.70;;
4226;SDS011;2127;51.046;7.080;2023-08-21T07:18:29;4.73;;;4.30;;
4226;SDS011;2127;51.046;7.080;2023-08-21T07:20:55;3.50;;;3.30;;
4226;SDS011;2127;51.046;7.080;2023-08-21T07:23:23;4.63;;;4.13;;
4226;SDS011;2127;51.046;7.080;2023-08-21T07:25:49;4.83;;;4.47;;
4226;SDS011;2127;51.046;7.080;2023-08-21T07:28:16;4.40;;;4.10;;
4226;SDS011;2127;51.046;7.080;2023-08-21T07:30:42;4.13;;;3.83;;
4226;SDS011;2127;51.046;7.080;2023-08-21T07:33:08;3.70;;;3.50;;
4226;SDS011;2127;51.046;7.080;2023-08-21T07:35:35;6.23;;;3.80;;
4226;SDS011;2127;51.046;7.080;2023-08-21T07:38:02;3.30;;;3.00;;
4226;SDS011;2127;51.046;7.080;2023-08-21T07:40:29;5.83;;;3.90;;
4226;SDS011;2127;51.046;7.080;2023-08-21T07:42:56;11.20;;;3.60;;
4226;SDS011;2127;51.046;7.080;2023-08-21T07:45:22;3.93;;;3.60;;
4226;SDS011;2127;51.046;7.080;2023-08-21T07:47:48;3.90;;;3.67;;
4226;SDS011;2127;51.046;7.080;2023-08-21T07:50:14;3.53;;;3.33;;
4226;SDS011;2127;51.046;7.080;2023-08-21T07:52:41;4.90;;;3.83;;
4226;SDS011;2127;51.046;7.080;2023-08-21T07:55:08;3.07;;;2.93;;
4226;SDS011;2127;51.046;7.080;2023-08-21T07:57:35;4.33;;;3.97;;
4226;SDS011;2127;51.046;7.080;2023-08-21T08:00:02;4.30;;;3.70;;
4226;SDS011;2127;51.046;7.080;2023-08-21T08:02:29;4.20;;;3.90;;
4226;SDS011;2127;51.046;7.080;2023-08-21T08:04:55;21.27;;;4.27;;
4226;SDS011;2127;51.046;7.080;2023-08-21T08:07:22;3.37;;;3.10;;
4226;SDS011;2127;51.046;7.080;2023-08-21T08:09:48;4.50;;;3.77;;
4226;SDS011;2127;51.046;7.080;2023-08-21T08:12:16;3.00;;;2.90;;
4226;SDS011;2127;51.046;7.080;2023-08-21T08:14:44;3.43;;;3.23;;
4226;SDS011;2127;51.046;7.080;2023-08-21T08:17:10;3.83;;;3.47;;
4226;SDS011;2127;51.046;7.080;2023-08-21T08:19:36;4.73;;;4.37;;
4226;SDS011;2127;51.046;7.080;2023-08-21T08:22:03;4.77;;;4.23;;
4226;SDS011;2127;51.046;7.080;2023-08-21T08:24:29;7.83;;;4.97;;
4226;SDS011;2127;51.046;7.080;2023-08-21T08:26:55;7.30;;;4.87;;
4226;SDS011;2127;51.046;7.080;2023-08-21T08:29:22;4.23;;;3.93;;
4226;SDS011;2127;51.046;7.080;2023-08-21T08:31:49;5.00;;;4.40;;
4226;SDS011;2127;51.046;7.080;2023-08-21T08:34:16;4.70;;;4.30;;
4226;SDS011;2127;51.046;7.080;2023-08-21T08:36:45;4.97;;;4.47;;
4226;SDS011;2127;51.046;7.080;2023-08-21T08:39:11;4.47;;;4.27;;
4226;SDS011;2127;51.046;7.080;2023-08-21T08:41:38;6.10;;;3.93;;
4226;SDS011;2127;51.046;7.080;2023-08-21T08:44:09;4.70;;;4.40;;
4226;SDS011;2127;51.046;7.080;2023-08-21T08:46:36;4.27;;;3.97;;
4226;SDS011;2127;51.046;7.080;2023-08-21T08:49:04;5.73;;;5.33;;
4226;SDS011;2127;51.046;7.080;2023-08-21T08:51:30;5.93;;;4.10;;
4226;SDS011;2127;51.046;7.080;2023-08-21T08:53:57;7.33;;;4.27;;
4226;SDS011;2127;51.046;7.080;2023-08-21T08:56:24;5.87;;;4.60;;
4226;SDS011;2127;51.046;7.080;2023-08-21T08:58:51;3.93;;;3.63;;
4226;SDS011;2127;51.046;7.080;2023-08-21T09:01:17;5.10;;;4.10;;
4226;SDS011;2127;51.046;7.080;2023-08-21T09:03:44;4.47;;;4.17;;
4226;SDS011;2127;51.046;7.080;2023-08-21T09:06:14;5.40;;;3.37;;
4226;SDS011;2127;51.046;7.080;2023-08-21T09:08:42;6.33;;;3.93;;
4226;SDS011;2127;51.046;7.080;2023-08-21T09:11:18;3.53;;;3.33;;
4226;SDS011;2127;51.046;7.080;2023-08-21T09:13:45;3.47;;;3.27;;
4226;SDS011;2127;51.046;7.080;2023-08-21T09:16:14;3.33;;;3.13;;
4226;SDS011;2127;51.046;7.080;2023-08-21T09:18:46;3.70;;;3.40;;
4226;SDS011;2127;51.046;7.080;2023-08-21T09:21:16;4.87;;;3.87;;
4226;SDS011;2127;51.046;7.080;2023-08-21T09:23:42;5.43;;;3.30;;
4226;SDS011;2127;51.046;7.080;2023-08-21T09:26:09;3.10;;;2.97;;
4226;SDS011;2127;51.046;7.080;2023-08-21T09:28:35;7.53;;;4.83;;
4226;SDS011;2127;51.046;7.080;2023-08-21T09:31:01;2.90;;;2.60;;
4226;SDS011;2127;51.046;7.080;2023-08-21T09:33:28;2.93;;;2.70;;
4226;SDS011;2127;51.046;7.080;2023-08-21T09:35:54;3.90;;;3.60;;
4226;SDS011;2127;51.046;7.080;2023-08-21T09:38:22;11.43;;;4.13;;
4226;SDS011;2127;51.046;7.080;2023-08-21T09:40:52;5.57;;;3.70;;
4226;SDS011;2127;51.046;7.080;2023-08-21T09:43:18;3.47;;;3.27;;
4226;SDS011;2127;51.046;7.080;2023-08-21T09:45:46;5.67;;;3.93;;
4226;SDS011;2127;51.046;7.080;2023-08-21T09:48:12;2.70;;;2.50;;
4226;SDS011;2127;51.046;7.080;2023-08-21T09:50:39;4.50;;;4.10;;
4226;SDS011;2127;51.046;7.080;2023-08-21T09:53:06;4.10;;;3.80;;
4226;SDS011;2127;51.046;7.080;2023-08-21T09:55:33;3.07;;;2.90;;
4226;SDS011;2127;51.046;7.080;2023-08-21T09:58:01;4.00;;;3.30;;
4226;SDS011;2127;51.046;7.080;2023-08-21T10:00:28;4.33;;;4.00;;
4226;SDS011;2127;51.046;7.080;2023-08-21T10:02:55;7.03;;;3.70;;
4226;SDS011;2127;51.046;7.080;2023-08-21T10:05:24;3.83;;;3.60;;
4226;SDS011;2127;51.046;7.080;2023-08-21T10:07:50;3.67;;;3.30;;
4226;SDS011;2127;51.046;7.080;2023-08-21T10:10:17;4.37;;;3.90;;
4226;SDS011;2127;51.046;7.080;2023-08-21T10:12:45;5.73;;;4.10;;
4226;SDS011;2127;51.046;7.080;2023-08-21T10:15:11;6.20;;;4.10;;
4226;SDS011;2127;51.046;7.080;2023-08-21T10:17:39;3.63;;;3.30;;
4226;SDS011;2127;51.046;7.080;2023-08-21T10:20:06;3.27;;;3.00;;
4226;SDS011;2127;51.046;7.080;2023-08-21T10:22:36;2.97;;;2.50;;
4226;SDS011;2127;51.046;7.080;2023-08-21T10:25:03;5.07;;;3.97;;
4226;SDS011;2127;51.046;7.080;2023-08-21T11:07:18;3.67;;;3.47;;
4226;SDS011;2127;51.046;7.080;2023-08-21T11:09:44;9.27;;;2.83;;
4226;SDS011;2127;51.046;7.080;2023-08-21T11:12:11;10.20;;;3.40;;
4226;SDS011;2127;51.046;7.080;2023-08-21T11:14:38;4.43;;;3.40;;
4226;SDS011;2127;51.046;7.080;2023-08-21T11:17:04;2.60;;;2.50;;
4226;SDS011;2127;51.046;7.080;2023-08-21T11:19:30;3.20;;;1.83;;
4226;SDS011;2127;51.046;7.080;2023-08-21T11:21:57;5.13;;;2.87;;
4226;SDS011;2127;51.046;7.080;2023-08-21T11:24:30;11.53;;;2.50;;
4226;SDS011;2127;51.046;7.080;2023-08-21T11:26:56;2.97;;;2.70;;
4226;SDS011;2127;51.046;7.080;2023-08-21T11:29:23;3.17;;;3.07;;
4226;SDS011;2127;51.046;7.080;2023-08-21T11:31:50;2.03;;;1.93;;
4226;SDS011;2127;51.046;7.080;2023-08-21T11:34:18;2.93;;;1.90;;
4226;SDS011;2127;51.046;7.080;2023-08-21T11:36:44;6.00;;;2.03;;
4226;SDS011;2127;51.046;7.080;2023-08-21T11:39:10;3.97;;;2.23;;
4226;SDS011;2127;51.046;7.080;2023-08-21T11:44:19;2.33;;;2.13;;
4226;SDS011;2127;51.046;7.080;2023-08-21T11:46:45;2.20;;;2.10;;
4226;SDS011;2127;51.046;7.080;2023-08-21T11:49:12;2.60;;;2.40;;
4226;SDS011;2127;51.046;7.080;2023-08-21T11:51:38;7.23;;;2.10;;
4226;SDS011;2127;51.046;7.080;2023-08-21T11:54:05;1.80;;;1.70;;
4226;SDS011;2127;51.046;7.080;2023-08-21T11:56:32;2.03;;;1.70;;
4226;SDS011;2127;51.046;7.080;2023-08-21T11:58:58;5.60;;;1.90;;
4226;SDS011;2127;51.046;7.080;2023-08-21T12:01:27;2.83;;;2.73;;
4226;SDS011;2127;51.046;7.080;2023-08-21T12:03:58;4.73;;;3.00;;
4226;SDS011;2127;51.046;7.080;2023-08-21T12:06:25;2.27;;;2.07;;
4226;SDS011;2127;51.046;7.080;2023-08-21T12:08:52;10.30;;;2.37;;
4226;SDS011;2127;51.046;7.080;2023-08-21T12:11:18;2.57;;;2.37;;
4226;SDS011;2127;51.046;7.080;2023-08-21T12:13:44;4.63;;;1.93;;
4226;SDS011;2127;51.046;7.080;2023-08-21T12:16:11;1.80;;;1.70;;
4226;SDS011;2127;51.046;7.080;2023-08-21T12:18:38;2.30;;;2.10;;
4226;SDS011;2127;51.046;7.080;2023-08-21T12:21:04;5.03;;;1.80;;
4226;SDS011;2127;51.046;7.080;2023-08-21T12:23:32;10.43;;;2.03;;
4226;SDS011;2127;51.046;7.080;2023-08-21T12:25:59;2.43;;;2.00;;
4226;SDS011;2127;51.046;7.080;2023-08-21T12:28:25;1.20;;;1.20;;
4226;SDS011;2127;51.046;7.080;2023-08-21T12:30:52;1.93;;;1.50;;
4226;SDS011;2127;51.046;7.080;2023-08-21T12:33:18;1.57;;;1.50;;
4226;SDS011;2127;51.046;7.080;2023-08-21T12:35:45;1.67;;;1.50;;
4226;SDS011;2127;51.046;7.080;2023-08-21T12:38:12;3.53;;;2.53;;
4226;SDS011;2127;51.046;7.080;2023-08-21T12:40:39;2.07;;;1.97;;
4226;SDS011;2127;51.046;7.080;2023-08-21T12:43:05;1.60;;;1.50;;
4226;SDS011;2127;51.046;7.080;2023-08-21T12:45:31;3.67;;;1.77;;
4226;SDS011;2127;51.046;7.080;2023-08-21T12:47:58;1.07;;;1.07;;
4226;SDS011;2127;51.046;7.080;2023-08-21T12:50:24;1.80;;;1.70;;
4226;SDS011;2127;51.046;7.080;2023-08-21T12:52:51;1.70;;;1.70;;
4226;SDS011;2127;51.046;7.080;2023-08-21T12:55:18;6.87;;;1.70;;
4226;SDS011;2127;51.046;7.080;2023-08-21T12:57:44;4.10;;;1.70;;
4226;SDS011;2127;51.046;7.080;2023-08-21T13:00:11;4.60;;;1.20;;
4226;SDS011;2127;51.046;7.080;2023-08-21T13:02:37;1.40;;;1.40;;
4226;SDS011;2127;51.046;7.080;2023-08-21T13:05:04;4.43;;;1.30;;
4226;SDS011;2127;51.046;7.080;2023-08-21T13:07:31;1.17;;;1.17;;
4226;SDS011;2127;51.046;7.080;2023-08-21T13:09:59;2.83;;;2.50;;
4226;SDS011;2127;51.046;7.080;2023-08-21T13:12:25;1.17;;;1.07;;
4226;SDS011;2127;51.046;7.080;2023-08-21T13:14:51;6.93;;;1.40;;
4226;SDS011;2127;51.046;7.080;2023-08-21T13:17:18;3.47;;;1.40;;
4226;SDS011;2127;51.046;7.080;2023-08-21T13:19:44;1.87;;;1.70;;
4226;SDS011;2127;51.046;7.080;2023-08-21T13:22:10;1.00;;;1.00;;
4226;SDS011;2127;51.046;7.080;2023-08-21T13:24:37;1.10;;;1.10;;
4226;SDS011;2127;51.046;7.080;2023-08-21T13:27:04;1.20;;;1.10;;
4226;SDS011;2127;51.046;7.080;2023-08-21T13:29:30;1.60;;;1.50;;
4226;SDS011;2127;51.046;7.080;2023-08-21T13:31:57;1.73;;;0.93;;
4226;SDS011;2127;51.046;7.080;2023-08-21T13:34:23;0.80;;;0.80;;
4226;SDS011;2127;51.046;7.080;2023-08-21T13:36:49;1.73;;;1.60;;
4226;SDS011;2127;51.046;7.080;2023-08-21T13:39:16;1.53;;;1.43;;
4226;SDS011;2127;51.046;7.080;2023-08-21T13:41:42;4.80;;;3.00;;
4226;SDS011;2127;51.046;7.080;2023-08-21T13:44:10;3.13;;;1.57;;
4226;SDS011;2127;51.046;7.080;2023-08-21T13:46:36;2.67;;;1.30;;
4226;SDS011;2127;51.046;7.080;2023-08-21T13:49:03;4.23;;;0.83;;
4226;SDS011;2127;51.046;7.080;2023-08-21T13:51:29;2.00;;;1.43;;
4226;SDS011;2127;51.046;7.080;2023-08-21T13:53:55;1.23;;;1.23;;
4226;SDS011;2127;51.046;7.080;2023-08-21T13:56:21;1.43;;;1.40;;
4226;SDS011;2127;51.046;7.080;2023-08-21T13:58:48;3.03;;;1.10;;
4226;SDS011;2127;51.046;7.080;2023-08-21T14:01:15;2.87;;;0.70;;
4226;SDS011;2127;51.046;7.080;2023-08-21T14:03:41;1.23;;;0.80;;
4226;SDS011;2127;51.046;7.080;2023-08-21T14:06:08;1.50;;;1.40;;
4226;SDS011;2127;51.046;7.080;2023-08-21T14:08:36;4.27;;;1.10;;
4226;SDS011;2127;51.046;7.080;2023-08-21T14:11:02;1.87;;;0.90;;
4226;SDS011;2127;51.046;7.080;2023-08-21T14:13:28;0.80;;;0.80;;
4226;SDS011;2127;51.046;7.080;2023-08-21T14:15:55;13.13;;;1.50;;
4226;SDS011;2127;51.046;7.080;2023-08-21T14:18:22;4.30;;;1.00;;
4226;SDS011;2127;51.046;7.080;2023-08-21T14:20:49;1.10;;;1.10;;
4226;SDS011;2127;51.046;7.080;2023-08-21T14:23:15;2.33;;;1.20;;
4226;SDS011;2127;51.046;7.080;2023-08-21T14:25:41;1.43;;;1.27;;
4226;SDS011;2127;51.046;7.080;2023-08-21T14:28:07;1.20;;;1.00;;
4226;SDS011;2127;51.046;7.080;2023-08-21T14:30:34;1.37;;;1.30;;
4226;SDS011;2127;51.046;7.080;2023-08-21T14:33:00;1.00;;;1.00;;
4226;SDS011;2127;51.046;7.080;2023-08-21T14:35:28;1.70;;;0.80;;
4226;SDS011;2127;51.046;7.080;2023-08-21T14:37:54;3.03;;;1.20;;
4226;SDS011;2127;51.046;7.080;2023-08-21T14:40:20;1.27;;;1.17;;
4226;SDS011;2127;51.046;7.080;2023-08-21T14:42:46;2.57;;;1.20;;
4226;SDS011;2127;51.046;7.080;2023-08-21T14:45:13;1.60;;;1.37;;
4226;SDS011;2127;51.046;7.080;2023-08-21T14:47:39;3.37;;;1.07;;
4226;SDS011;2127;51.046;7.080;2023-08-21T14:50:06;1.10;;;1.00;;
4226;SDS011;2127;51.046;7.080;2023-08-21T14:52:34;3.03;;;1.07;;
4226;SDS011;2127;51.046;7.080;2023-08-21T14:55:00;1.00;;;1.00;;
4226;SDS011;2127;51.046;7.080;2023-08-21T14:57:26;0.83;;;0.83;;
4226;SDS011;2127;51.046;7.080;2023-08-21T14:59:53;1.20;;;1.10;;
4226;SDS011;2127;51.046;7.080;2023-08-21T15:02:19;0.70;;;0.70;;
4226;SDS011;2127;51.046;7.080;2023-08-21T15:04:45;4.53;;;1.30;;
4226;SDS011;2127;51.046;7.080;2023-08-21T15:07:11;2.20;;;1.00;;
4226;SDS011;2127;51.046;7.080;2023-08-21T15:09:39;0.93;;;0.70;;
4226;SDS011;2127;51.046;7.080;2023-08-21T15:12:06;1.57;;;0.90;;
4226;SDS011;2127;51.046;7.080;2023-08-21T15:14:32;1.07;;;1.07;;
4226;SDS011;2127;51.046;7.080;2023-08-21T15:16:58;3.90;;;1.10;;
4226;SDS011;2127;51.046;7.080;2023-08-21T15:19:24;1.47;;;0.70;;
4226;SDS011;2127;51.046;7.080;2023-08-21T15:21:51;1.13;;;1.13;;
4226;SDS011;2127;51.046;7.080;2023-08-21T15:24:17;1.50;;;1.20;;
4226;SDS011;2127;51.046;7.080;2023-08-21T15:26:45;1.33;;;1.33;;
4226;SDS011;2127;51.046;7.080;2023-08-21T15:29:11;3.90;;;1.27;;
4226;SDS011;2127;51.046;7.080;2023-08-21T15:31:37;1.13;;;1.13;;
4226;SDS011;2127;51.046;7.080;2023-08-21T15:34:03;0.97;;;0.97;;
4226;SDS011;2127;51.046;7.080;2023-08-21T15:36:30;0.83;;;0.83;;
4226;SDS011;2127;51.046;7.080;2023-08-21T15:38:56;1.00;;;1.00;;
4226;SDS011;2127;51.046;7.080;2023-08-21T15:41:22;1.50;;;1.40;;
4226;SDS011;2127;51.046;7.080;2023-08-21T15:43:50;5.53;;;1.00;;
4226;SDS011;2127;51.046;7.080;2023-08-21T15:46:17;4.00;;;0.77;;
4226;SDS011;2127;51.046;7.080;2023-08-21T15:48:43;3.50;;;0.93;;
4226;SDS011;2127;51.046;7.080;2023-08-21T15:51:09;0.90;;;0.90;;
4226;SDS011;2127;51.046;7.080;2023-08-21T15:53:35;1.70;;;0.87;;